Time;durP1;ratioP1;P1;durP2;ratioP2;P2;SDS_P1;SDS_P2;PMS_P1;PMS_P2;Temp;Humidity;BMP_temperature;BMP_pressure;BME280_temperature;BME280_humidity;BME280_pressure;Samples;Min_cycle;Max_cycle;Signal;HPM_P1;HPM_P2
2021/11/01 00:00:56;;;;;;;25.60;18.07;;;;;;;7.79;86.09;95006.88;5134705;28;20430;-80
2021/11/01 00:03:24;;;;;;;25.57;17.53;;;;;;;7.74;86.18;95004.59;5134747;28;20803;-80
2021/11/01 00:05:52;;;;;;;25.43;18.20;;;;;;;7.74;85.89;94996.75;5134403;28;20443;-80
2021/11/01 00:08:19;;;;;;;26.37;17.13;;;;;;;7.73;86.05;94999.50;5135423;28;20890;-80
2021/11/01 00:10:46;;;;;;;31.83;18.87;;;;;;;7.72;86.03;95001.25;5134962;28;20931;-80
2021/11/01 00:13:13;;;;;;;26.77;18.67;;;;;;;7.69;86.43;95016.31;5135155;28;20569;-80
2021/11/01 00:15:41;;;;;;;32.63;20.00;;;;;;;7.65;85.84;95009.66;5134428;28;20802;-80
2021/11/01 00:18:08;;;;;;;27.47;17.30;;;;;;;7.63;86.05;95012.38;5134409;28;20430;-80
2021/11/01 00:20:35;;;;;;;32.87;19.17;;;;;;;7.63;86.18;95007.16;5135040;28;20430;-80
2021/11/01 00:23:04;;;;;;;27.57;17.17;;;;;;;7.65;86.45;95007.03;5134264;28;20426;-80
2021/11/01 00:25:33;;;;;;;27.40;16.90;;;;;;;7.64;86.45;95010.59;5134501;28;20438;-80
2021/11/01 00:28:01;;;;;;;42.20;19.60;;;;;;;7.62;86.80;95002.88;5081937;28;20450;-79
2021/11/01 00:30:28;;;;;;;27.10;17.57;;;;;;;7.57;86.34;94997.16;5134715;28;20474;-79
2021/11/01 00:32:55;;;;;;;32.10;17.60;;;;;;;7.53;86.57;95005.31;5134275;28;20954;-80
2021/11/01 00:35:23;;;;;;;26.90;17.33;;;;;;;7.51;86.34;95000.19;5082151;28;20805;-80
2021/11/01 00:37:50;;;;;;;32.67;18.17;;;;;;;7.53;87.10;95002.72;5134712;28;20433;-80
2021/11/01 00:40:18;;;;;;;29.67;19.03;;;;;;;7.52;86.78;94998.41;5064211;28;20449;-80
2021/11/01 00:42:45;;;;;;;40.40;19.67;;;;;;;7.49;87.05;94996.84;5135875;27;20924;-80
2021/11/01 00:45:12;;;;;;;26.73;16.47;;;;;;;7.46;87.17;94995.28;5138601;27;20453;-80
2021/11/01 00:47:39;;;;;;;28.20;17.67;;;;;;;7.45;86.77;94995.41;5137862;27;20427;-80
2021/11/01 00:50:07;;;;;;;33.60;19.97;;;;;;;7.43;86.34;94984.22;5138242;27;20442;-80
2021/11/01 00:52:34;;;;;;;45.73;25.97;;;;;;;7.42;86.74;94988.63;5138051;27;20442;-80
2021/11/01 00:55:02;;;;;;;63.50;31.33;;;;;;;7.42;86.45;94980.78;5138099;27;20902;-80
2021/11/01 00:57:34;;;;;;;47.93;25.37;;;;;;;7.42;85.96;94983.41;5138785;27;20539;-80
2021/11/01 01:00:01;;;;;;;53.23;28.40;;;;;;;7.37;85.74;94979.44;5138035;27;20423;-80
2021/11/01 01:02:33;;;;;;;52.53;29.70;;;;;;;7.36;85.80;94973.41;5138256;27;20430;-80
2021/11/01 01:05:01;;;;;;;59.57;29.93;;;;;;;7.33;85.96;94963.19;5138125;27;20438;-80
2021/11/01 01:07:28;;;;;;;67.87;31.47;;;;;;;7.31;86.16;94970.28;5138073;27;20795;-80
2021/11/01 01:09:55;;;;;;;65.73;30.70;;;;;;;7.31;86.75;94962.47;5137904;27;20824;-79
2021/11/01 01:12:23;;;;;;;56.00;27.50;;;;;;;7.30;86.19;94955.56;5138084;27;20924;-80
2021/11/01 01:14:56;;;;;;;59.87;28.77;;;;;;;7.30;85.45;94952.13;5137559;27;20467;-79
2021/11/01 01:17:24;;;;;;;49.53;26.10;;;;;;;7.27;85.77;94947.97;5084916;27;20428;-79
2021/11/01 01:19:57;;;;;;;39.90;22.70;;;;;;;7.27;85.85;94953.19;5101369;27;20514;-79
2021/11/01 01:22:28;;;;;;;34.13;19.40;;;;;;;7.26;85.47;94948.91;5137446;27;20966;-80
2021/11/01 01:25:03;;;;;;;26.87;17.90;;;;;;;7.23;86.02;94943.91;5137929;27;20427;-79
2021/11/01 01:27:31;;;;;;;24.53;15.73;;;;;;;7.26;86.17;94950.69;5080337;27;20917;-80
2021/11/01 01:29:59;;;;;;;26.07;16.50;;;;;;;7.25;86.52;94942.00;5137218;27;20496;-79
2021/11/01 01:32:26;;;;;;;26.50;15.07;;;;;;;7.23;85.83;94941.28;5137019;27;20478;-80
2021/11/01 01:34:53;;;;;;;26.73;15.80;;;;;;;7.22;85.97;94936.97;5137075;27;20472;-79
2021/11/01 01:40:42;;;;;;;27.47;16.63;;;;;;;7.14;85.39;94934.94;5137832;27;20763;-80
2021/11/01 01:43:09;;;;;;;29.17;17.80;;;;;;;7.08;84.59;94932.75;5137087;27;20427;-80
2021/11/01 01:45:37;;;;;;;24.43;17.77;;;;;;;6.83;84.88;94932.81;5084381;27;20441;-81
2021/11/01 01:48:05;;;;;;;25.87;15.37;;;;;;;6.72;84.50;94925.72;5084643;27;20793;-79
2021/11/01 01:50:32;;;;;;;25.40;16.30;;;;;;;6.67;85.68;94921.78;5136548;27;20514;-80
2021/11/01 01:52:59;;;;;;;27.60;17.03;;;;;;;6.63;85.58;94915.91;5137083;27;20445;-81
2021/11/01 01:55:26;;;;;;;20.30;15.60;;;;;;;6.63;86.10;94915.09;5136531;27;20991;-80
2021/11/01 01:57:53;;;;;;;25.87;16.77;;;;;;;6.63;86.28;94925.50;5137371;27;20951;-80
2021/11/01 02:00:34;;;;;;;26.40;15.80;;;;;;;6.55;86.10;94925.22;5101344;27;20430;-80
2021/11/01 02:03:03;;;;;;;24.23;14.80;;;;;;;6.40;85.84;94922.72;5137564;27;20431;-80
2021/11/01 02:05:37;;;;;;;32.23;17.00;;;;;;;6.39;86.39;94917.63;5136395;27;20480;-80
2021/11/01 02:08:07;;;;;;;27.00;17.80;;;;;;;6.36;85.92;94916.06;5136299;27;20446;-79
2021/11/01 02:10:42;;;;;;;28.17;17.77;;;;;;;6.34;86.58;94917.06;5137497;27;20419;-80
2021/11/01 02:13:16;;;;;;;24.67;15.93;;;;;;;6.35;86.89;94911.75;5136401;27;20974;-80
2021/11/01 02:15:48;;;;;;;28.07;16.63;;;;;;;6.37;86.77;94914.28;5136362;27;20486;-80
2021/11/01 02:18:18;;;;;;;25.97;16.57;;;;;;;6.42;86.60;94914.81;5137278;27;20447;-80
2021/11/01 02:20:55;;;;;;;30.17;16.10;;;;;;;6.44;85.40;94913.75;5136507;27;20434;-76
2021/11/01 02:23:27;;;;;;;28.53;17.70;;;;;;;6.45;85.08;94911.97;5135826;27;20442;-80
2021/11/01 02:25:57;;;;;;;23.00;15.53;;;;;;;6.45;85.48;94910.22;5136535;27;20449;-80
2021/11/01 02:28:26;;;;;;;37.30;22.37;;;;;;;6.41;85.21;94905.31;5135797;27;20433;-80
2021/11/01 02:30:54;;;;;;;47.10;26.93;;;;;;;6.35;85.86;94909.16;5135765;27;20519;-80
2021/11/01 02:33:24;;;;;;;70.17;34.50;;;;;;;6.32;85.56;94911.13;5136043;27;20484;-80
2021/11/01 02:35:52;;;;;;;148.90;62.57;;;;;;;6.29;85.25;94906.97;5136482;27;20486;-80
2021/11/01 02:38:22;;;;;;;108.20;55.30;;;;;;;6.26;86.18;94914.16;5136662;27;20430;-80
2021/11/01 02:40:49;;;;;;;94.37;48.07;;;;;;;6.16;85.90;94917.41;5083245;27;20418;-80
2021/11/01 02:43:18;;;;;;;100.03;47.23;;;;;;;6.05;85.93;94913.81;5136148;27;20458;-80
2021/11/01 02:45:45;;;;;;;95.70;47.40;;;;;;;5.92;87.50;94919.03;5135510;27;20436;-80
2021/11/01 02:48:14;;;;;;;80.40;43.43;;;;;;;5.90;88.11;94915.69;5135319;27;20963;-80
2021/11/01 02:50:41;;;;;;;75.27;42.87;;;;;;;5.76;88.15;94915.72;5083353;27;20439;-80
2021/11/01 02:53:08;;;;;;;57.73;32.83;;;;;;;5.59;88.72;94914.22;5135901;27;20438;-80
2021/11/01 02:55:35;;;;;;;60.23;31.47;;;;;;;5.62;89.42;94915.78;5135230;27;20466;-80
2021/11/01 02:58:02;;;;;;;46.93;26.70;;;;;;;5.60;88.34;94915.91;5135799;27;20764;-80
2021/11/01 03:00:32;;;;;;;43.00;25.60;;;;;;;5.63;89.50;94913.09;5083005;27;20802;-80
2021/11/01 03:02:59;;;;;;;48.40;30.00;;;;;;;5.62;89.25;94913.19;5083486;27;20475;-80
2021/11/01 03:05:28;;;;;;;44.70;25.13;;;;;;;5.69;89.27;94922.25;5135106;27;20483;-79
2021/11/01 03:07:57;;;;;;;45.30;24.90;;;;;;;5.71;88.00;94920.38;5135584;27;20431;-80
2021/11/01 03:10:26;;;;;;;38.63;21.63;;;;;;;5.75;88.30;94911.44;5135938;27;20773;-79
2021/11/01 03:12:54;;;;;;;41.23;26.33;;;;;;;5.80;87.50;94915.44;5135501;27;20442;-80
2021/11/01 03:15:23;;;;;;;48.93;25.80;;;;;;;5.87;88.04;94913.25;5134796;27;20478;-80
2021/11/01 03:17:54;;;;;;;43.30;25.03;;;;;;;5.91;87.59;94912.16;5134674;27;20435;-80
2021/11/01 03:20:27;;;;;;;45.50;24.10;;;;;;;5.99;87.54;94911.63;5134630;27;20912;-80
2021/11/01 03:22:59;;;;;;;51.20;28.20;;;;;;;5.97;87.23;94911.72;5135849;27;20443;-80
2021/11/01 03:25:34;;;;;;;40.40;24.87;;;;;;;5.99;87.80;94904.66;5134209;27;20461;-79
2021/11/01 03:28:04;;;;;;;61.07;28.80;;;;;;;5.97;88.15;94903.09;5098880;27;20426;-81
2021/11/01 03:30:33;;;;;;;49.97;26.40;;;;;;;5.98;88.54;94897.78;5135208;27;20438;-79
2021/11/01 03:33:03;;;;;;;48.40;24.00;;;;;;;5.93;89.36;94899.84;5134908;27;20909;-80
2021/11/01 03:35:30;;;;;;;49.40;24.63;;;;;;;5.94;88.97;94904.13;5134865;27;20465;-79
2021/11/01 03:38:00;;;;;;;39.37;22.40;;;;;;;5.98;88.16;94902.16;5135937;27;20517;-80
2021/11/01 03:40:32;;;;;;;42.73;22.90;;;;;;;5.95;87.36;94897.16;5135151;27;20764;-80
2021/11/01 03:43:01;;;;;;;40.27;22.00;;;;;;;5.92;87.83;94895.59;5135793;27;20438;-80
2021/11/01 03:45:29;;;;;;;42.50;23.13;;;;;;;5.94;86.98;94896.31;5134827;27;20434;-80
2021/11/01 03:48:02;;;;;;;35.93;23.10;;;;;;;5.98;87.65;94891.72;5065399;28;20517;-80
2021/11/01 03:50:35;;;;;;;35.53;21.63;;;;;;;6.01;87.46;94889.75;5134619;28;21011;-80
2021/11/01 03:53:02;;;;;;;29.80;19.53;;;;;;;6.06;87.83;94885.06;5135659;28;20434;-80
2021/11/01 03:55:30;;;;;;;29.13;20.90;;;;;;;6.09;87.83;94889.25;5135760;28;20473;-80
2021/11/01 03:57:57;;;;;;;37.97;21.40;;;;;;;6.07;86.80;94886.75;5134499;28;20431;-80
2021/11/01 04:00:26;;;;;;;36.73;18.53;;;;;;;6.03;85.93;94880.06;5134860;28;20431;-80
2021/11/01 04:02:54;;;;;;;31.80;20.13;;;;;;;5.90;87.79;94885.28;5135169;28;20505;-80
2021/11/01 04:05:21;;;;;;;31.17;20.67;;;;;;;5.89;88.04;94888.81;5134644;28;20488;-80
2021/11/01 04:07:49;;;;;;;31.93;20.13;;;;;;;5.92;87.41;94886.94;5134473;28;20514;-80
2021/11/01 04:10:16;;;;;;;32.07;18.53;;;;;;;5.92;86.96;94882.56;5082337;28;20431;-80
2021/11/01 04:12:44;;;;;;;38.53;21.90;;;;;;;5.83;86.88;94883.16;5134346;28;20443;-80
2021/11/01 04:15:14;;;;;;;52.63;21.50;;;;;;;5.85;86.72;94879.50;5134575;28;20467;-80
2021/11/01 04:17:44;;;;;;;32.77;20.77;;;;;;;5.86;86.83;94870.75;5136630;27;20776;-80
2021/11/01 04:20:26;;;;;;;36.30;21.03;;;;;;;5.85;86.38;94866.50;5087236;27;20937;-80
2021/11/01 04:22:58;;;;;;;44.90;21.60;;;;;;;5.84;86.29;94874.41;5138999;27;20453;-80
2021/11/01 04:25:27;;;;;;;33.50;21.07;;;;;;;5.81;84.95;94870.25;5139455;27;20471;-80
2021/11/01 04:27:56;;;;;;;31.80;20.37;;;;;;;5.74;84.75;94874.16;5138545;27;20964;-80
2021/11/01 04:30:23;;;;;;;35.63;19.60;;;;;;;5.69;84.96;94872.81;5138848;27;20439;-79
2021/11/01 04:32:53;;;;;;;37.50;19.60;;;;;;;5.65;85.63;94868.72;5138575;27;20438;-79
2021/11/01 04:35:23;;;;;;;36.47;19.17;;;;;;;5.42;85.81;94862.44;5138218;27;21006;-79
2021/11/01 04:37:55;;;;;;;36.97;21.60;;;;;;;5.35;85.52;94871.56;5138990;27;20510;-80
2021/11/01 04:40:30;;;;;;;46.90;27.30;;;;;;;5.25;86.92;94863.53;5119175;27;21147;-80
2021/11/01 04:55:21;;;;;;;35.93;23.07;;;;;;;5.06;88.79;94861.28;4975301;28;20480;-80
2021/11/01 04:57:50;;;;;;;34.30;21.73;;;;;;;5.07;88.91;94859.50;4975957;28;20452;-80
2021/11/01 05:00:17;;;;;;;42.33;21.67;;;;;;;5.12;89.59;94854.84;4975744;28;20512;-79
2021/11/01 05:02:47;;;;;;;38.07;20.80;;;;;;;5.13;89.87;94857.34;4927986;28;20438;-80
2021/11/01 05:05:14;;;;;;;37.77;21.97;;;;;;;5.04;89.68;94852.72;4975586;28;20456;-80
2021/11/01 05:07:42;;;;;;;34.03;22.50;;;;;;;5.10;89.95;94857.53;4975868;28;20452;-80
2021/11/01 05:10:13;;;;;;;44.67;23.97;;;;;;;5.15;90.63;94868.47;4975807;28;20565;-80
2021/11/01 05:12:42;;;;;;;38.37;21.67;;;;;;;5.20;90.86;94860.38;4944784;28;20968;-80
2021/11/01 05:15:16;;;;;;;48.30;21.00;;;;;;;5.28;90.72;94865.94;4975799;28;20489;-80
2021/11/01 05:17:52;;;;;;;37.57;21.27;;;;;;;5.27;89.92;94856.47;4975470;28;20477;-80
2021/11/01 05:20:23;;;;;;;54.83;28.30;;;;;;;5.20;90.12;94866.44;5055748;28;20523;-79
2021/11/01 05:22:54;;;;;;;71.40;37.67;;;;;;;5.22;90.23;94868.94;5103361;27;20453;-80
2021/11/01 05:25:25;;;;;;;118.60;61.37;;;;;;;5.13;91.25;94865.13;5136929;27;20450;-80
2021/11/01 05:28:00;;;;;;;72.70;36.73;;;;;;;5.16;91.95;94867.53;5137096;27;20492;-79
2021/11/01 05:30:33;;;;;;;70.90;39.43;;;;;;;5.20;91.24;94869.03;5136489;27;20494;-79
2021/11/01 05:33:05;;;;;;;73.30;41.87;;;;;;;5.24;91.72;94870.50;5136315;27;20441;-80
2021/11/01 05:35:32;;;;;;;59.57;34.90;;;;;;;5.29;90.66;94872.81;5135830;27;20886;-80
2021/11/01 05:37:59;;;;;;;61.77;35.33;;;;;;;5.31;91.75;94875.31;5083559;27;20513;-80
2021/11/01 05:40:26;;;;;;;79.53;42.57;;;;;;;5.38;91.70;94877.41;5100258;27;20440;-80
2021/11/01 05:42:53;;;;;;;75.10;39.10;;;;;;;5.47;91.46;94879.41;5137036;27;20467;-79
2021/11/01 05:45:20;;;;;;;59.10;36.03;;;;;;;5.59;92.86;94876.00;5136772;27;20920;-79
2021/11/01 05:47:56;;;;;;;62.43;36.07;;;;;;;5.68;91.85;94873.75;5136947;27;20790;-81
2021/11/01 05:50:24;;;;;;;69.40;39.17;;;;;;;5.74;91.17;94871.56;5136971;27;20491;-81
2021/11/01 05:52:51;;;;;;;80.07;43.93;;;;;;;5.84;91.39;94877.00;5137328;27;20435;-80
2021/11/01 05:55:29;;;;;;;106.27;55.43;;;;;;;5.83;90.96;94881.38;5137334;27;20477;-80
2021/11/01 05:58:09;;;;;;;87.80;52.33;;;;;;;5.87;90.23;94889.81;5136556;27;20803;-80
2021/11/01 06:03:28;;;;;;;102.00;55.30;;;;;;;5.99;91.17;94889.03;5075169;28;20410;-83
2021/11/01 06:08:56;;;;;;;99.43;54.77;;;;;;;6.18;91.46;94894.69;5014258;28;20440;-82
2021/11/01 06:14:07;;;;;;;67.93;42.73;;;;;;;6.30;92.65;94890.38;5014118;28;20432;-83
2021/11/01 06:16:34;;;;;;;113.00;62.17;;;;;;;6.36;92.79;94882.19;5013728;28;20482;-82
2021/11/01 06:19:02;;;;;;;109.27;63.43;;;;;;;6.56;93.19;94893.00;5014621;28;20456;-82
2021/11/01 06:21:29;;;;;;;138.23;72.63;;;;;;;6.80;92.92;94891.28;5014494;28;20452;-85
2021/11/01 06:24:00;;;;;;;136.73;73.20;;;;;;;7.12;94.81;94886.41;5014265;28;20515;-85
2021/11/01 06:26:29;;;;;;;109.93;64.70;;;;;;;7.56;94.56;94885.81;5013682;28;20491;-82
2021/11/01 06:28:59;;;;;;;121.83;62.93;;;;;;;7.99;90.75;94893.91;5014119;28;20472;-82
2021/11/01 06:31:30;;;;;;;115.07;57.03;;;;;;;8.38;87.71;94892.75;5013320;28;20483;-82
2021/11/01 06:34:15;;;;;;;130.10;71.47;;;;;;;8.75;85.27;94886.47;5013089;28;20510;-82
2021/11/01 06:39:45;;;;;;;102.07;52.47;;;;;;;9.34;82.26;94881.75;5017962;28;20435;-86
2021/11/01 06:42:28;;;;;;;75.87;41.77;;;;;;;9.55;82.89;94887.06;5052574;28;20496;-82
2021/11/01 06:45:08;;;;;;;82.60;45.30;;;;;;;9.71;80.37;94891.88;5064054;27;20528;-82
2021/11/01 06:50:30;;;;;;;65.57;39.00;;;;;;;9.91;78.95;94888.47;5135581;27;20463;-82
2021/11/01 06:53:28;;;;;;;68.23;40.80;;;;;;;9.99;79.83;94888.66;5135153;27;20495;-82
2021/11/01 06:56:03;;;;;;;64.57;39.07;;;;;;;10.05;79.04;94885.53;5135048;27;20486;-82
2021/11/01 07:15:03;;;;;;;78.37;44.70;;;;;;;10.63;76.98;94874.59;5135981;27;20434;-82
2021/11/01 07:17:42;;;;;;;89.73;49.10;;;;;;;10.62;77.62;94870.31;5135118;27;20522;-83
2021/11/01 07:20:18;;;;;;;90.47;45.97;;;;;;;10.69;77.13;94858.31;5134773;27;20434;-82
2021/11/01 08:20:40;;;;;;;40.83;26.40;;;;;;;10.54;84.21;94835.06;5133928;28;20426;-82
2021/11/01 08:29:11;;;;;;;56.30;34.03;;;;;;;11.09;83.20;94824.19;5133928;28;20463;-82
2021/11/01 08:48:43;;;;;;;42.30;26.63;;;;;;;11.51;81.16;94827.44;4971827;28;20841;-82
2021/11/01 09:18:54;;;;;;;33.63;20.60;;;;;;;12.86;72.68;94798.25;4899524;29;20493;-82
2021/11/01 09:21:42;;;;;;;29.93;20.37;;;;;;;13.09;72.53;94798.69;4955548;28;21008;-82
2021/11/01 09:27:03;;;;;;;36.73;21.77;;;;;;;13.28;72.02;94798.59;4955506;28;20454;-83
2021/11/01 09:29:44;;;;;;;33.70;20.97;;;;;;;13.41;70.52;94794.78;4956701;28;20461;-83
2021/11/01 09:38:00;;;;;;;31.10;20.90;;;;;;;13.08;70.79;94769.88;4996960;28;20425;-83
2021/11/01 09:43:14;;;;;;;28.30;18.10;;;;;;;13.15;71.18;94763.03;5053229;28;20939;-82
2021/11/01 09:45:41;;;;;;;35.17;19.80;;;;;;;13.23;70.49;94756.06;5053441;28;20462;-83
2021/11/01 09:48:09;;;;;;;29.57;18.40;;;;;;;13.03;70.13;94754.50;5053194;28;20450;-82
2021/11/01 09:50:38;;;;;;;32.10;20.40;;;;;;;12.91;71.38;94745.16;5053014;28;20477;-82
2021/11/01 09:53:15;;;;;;;35.37;20.97;;;;;;;13.05;71.45;94746.47;5053219;28;20478;-83
2021/11/01 09:55:52;;;;;;;26.03;16.47;;;;;;;13.18;70.68;94734.59;5052930;28;20850;-82
2021/11/01 10:01:07;;;;;;;32.30;18.97;;;;;;;13.30;69.69;94728.16;5052783;28;20430;-82
2021/11/01 10:03:36;;;;;;;27.83;18.33;;;;;;;13.36;69.81;94729.34;5094663;27;20937;-82
2021/11/01 10:06:05;;;;;;;30.40;19.10;;;;;;;13.35;69.14;94725.06;5136146;27;20455;-82
2021/11/01 10:08:33;;;;;;;27.60;18.93;;;;;;;13.26;69.61;94723.31;5136067;27;20975;-82
2021/11/01 10:11:02;;;;;;;29.90;18.53;;;;;;;13.28;69.71;94708.16;5136238;27;20431;-82
2021/11/01 10:13:29;;;;;;;29.10;19.73;;;;;;;13.45;69.71;94715.25;5136055;27;21020;-82
2021/11/01 10:18:46;;;;;;;30.20;18.77;;;;;;;13.38;70.99;94705.47;5135794;27;20468;-82
2021/11/01 10:21:15;;;;;;;28.30;18.80;;;;;;;13.45;70.15;94709.97;5135814;27;20929;-83
2021/11/01 10:23:50;;;;;;;28.60;19.50;;;;;;;13.44;70.70;94700.41;5135859;27;20522;-83
2021/11/01 10:26:20;;;;;;;28.63;18.10;;;;;;;13.52;69.79;94716.28;5135954;27;20511;-83
2021/11/01 10:28:48;;;;;;;27.30;19.60;;;;;;;13.62;69.75;94701.22;5136200;27;20507;-82
2021/11/01 10:31:19;;;;;;;28.00;19.90;;;;;;;13.66;69.13;94701.75;5135608;27;20521;-83
2021/11/01 10:33:48;;;;;;;38.83;20.53;;;;;;;13.70;70.45;94694.34;5083559;27;20463;-82
2021/11/01 10:36:26;;;;;;;30.07;19.53;;;;;;;13.70;69.53;94689.91;5135755;27;20532;-83
2021/11/01 10:38:57;;;;;;;36.20;21.80;;;;;;;13.77;70.32;94677.75;5135716;27;20446;-82
2021/11/01 10:41:29;;;;;;;31.50;20.53;;;;;;;13.89;70.90;94673.06;5135707;27;20453;-82
2021/11/01 10:44:13;;;;;;;33.57;19.70;;;;;;;13.84;69.38;94670.03;5135666;27;20464;-83
2021/11/01 11:12:24;;;;;;;39.33;20.60;;;;;;;13.73;71.71;94628.94;5059124;28;20451;-82
2021/11/01 11:14:54;;;;;;;31.63;23.00;;;;;;;13.80;70.53;94635.25;5071440;28;20943;-82
2021/11/01 11:17:24;;;;;;;35.60;19.80;;;;;;;13.90;70.20;94635.97;5071303;28;20485;-83
2021/11/01 11:26:13;;;;;;;38.77;23.10;;;;;;;14.01;68.87;94631.41;5091254;28;20433;-82
2021/11/01 11:49:12;;;;;;;32.67;19.60;;;;;;;14.37;68.46;94595.09;5051180;28;20459;-83
2021/11/01 11:51:40;;;;;;;34.60;20.53;;;;;;;14.43;69.40;94587.41;5051241;28;20461;-84
2021/11/01 11:54:08;;;;;;;32.63;20.03;;;;;;;14.34;69.24;94590.16;5051052;28;20477;-84
2021/11/01 11:56:37;;;;;;;26.73;20.70;;;;;;;14.43;69.00;94589.22;5050728;28;20900;-83
2021/11/01 11:59:07;;;;;;;28.90;19.27;;;;;;;14.46;69.21;94583.63;5050645;28;20474;-83
2021/11/01 12:01:37;;;;;;;33.40;20.53;;;;;;;14.53;68.95;94579.34;5070531;28;20468;-83
2021/11/01 12:04:07;;;;;;;35.07;20.63;;;;;;;14.57;68.52;94573.59;5075376;28;20482;-84
2021/11/01 12:06:49;;;;;;;37.77;21.10;;;;;;;14.70;68.52;94580.19;5075116;28;20519;-83
2021/11/01 12:09:21;;;;;;;27.20;18.10;;;;;;;14.65;67.98;94577.22;5093715;28;20444;-84
2021/11/01 12:12:24;;;;;;;27.30;17.00;;;;;;;14.39;67.67;94579.94;5093546;28;20962;-83
2021/11/01 12:17:38;;;;;;;32.70;19.00;;;;;;;14.55;67.79;94572.09;5092623;28;20479;-84
2021/11/01 12:20:08;;;;;;;29.17;20.60;;;;;;;14.55;67.21;94566.81;5074101;28;20440;-82
2021/11/01 12:22:42;;;;;;;27.50;18.13;;;;;;;14.61;67.36;94560.88;5093036;28;20534;-83
2021/11/01 12:25:16;;;;;;;37.60;21.70;;;;;;;14.61;67.14;94560.06;5075293;28;20508;-83
2021/11/01 12:27:48;;;;;;;25.60;17.17;;;;;;;14.42;67.34;94558.50;5074796;28;20484;-84
2021/11/01 12:30:21;;;;;;;29.10;17.70;;;;;;;14.44;67.87;94559.19;5092837;28;20527;-84
2021/11/01 12:32:50;;;;;;;31.40;18.13;;;;;;;14.46;67.81;94549.31;5070902;28;20437;-83
2021/11/01 12:35:23;;;;;;;28.33;18.83;;;;;;;14.33;67.98;94544.44;5071160;28;20612;-84
2021/11/01 12:37:55;;;;;;;30.60;19.13;;;;;;;14.43;68.76;94544.34;5071302;28;21025;-83
2021/11/01 12:40:28;;;;;;;37.90;17.47;;;;;;;14.35;68.26;94546.94;5041463;28;20496;-83
2021/11/01 12:43:17;;;;;;;28.07;19.83;;;;;;;14.48;68.55;94542.88;5074127;28;20775;-83
2021/11/01 12:49:04;;;;;;;29.77;18.10;;;;;;;14.43;67.49;94534.59;5073872;28;21076;-84
2021/11/01 12:57:08;;;;;;;28.77;18.50;;;;;;;14.50;68.33;94521.59;5014245;28;20566;-83
2021/11/01 12:59:42;;;;;;;27.17;18.40;;;;;;;14.47;68.80;94521.91;5014096;28;20490;-83
2021/11/01 13:02:13;;;;;;;26.80;18.07;;;;;;;14.57;67.90;94514.66;5014606;28;20451;-84
2021/11/01 13:04:42;;;;;;;27.13;18.57;;;;;;;14.48;67.66;94523.56;5014398;28;20519;-82
2021/11/01 13:07:32;;;;;;;37.43;19.00;;;;;;;14.40;67.93;94512.94;5013689;28;20459;-82
2021/11/01 13:10:07;;;;;;;26.47;18.00;;;;;;;14.59;67.79;94512.69;5028685;28;20446;-82
2021/11/01 13:18:18;;;;;;;25.47;17.60;;;;;;;14.61;67.70;94508.06;5013897;28;20525;-82
2021/11/01 13:20:52;;;;;;;28.80;17.80;;;;;;;14.70;67.20;94506.25;4965913;28;20837;-82
2021/11/01 13:23:19;;;;;;;23.10;18.23;;;;;;;14.74;66.56;94507.56;5014061;28;20535;-82
2021/11/01 13:26:01;;;;;;;23.43;17.57;;;;;;;14.74;66.00;94503.09;5013844;28;20464;-82
2021/11/01 13:28:50;;;;;;;25.17;17.50;;;;;;;14.75;65.85;94501.31;5013873;28;20811;-82
2021/11/01 13:36:53;;;;;;;29.20;16.90;;;;;;;14.51;66.03;94496.84;5053443;28;20492;-82
2021/11/01 13:39:25;;;;;;;24.70;16.53;;;;;;;14.63;67.06;94500.81;5053466;28;20446;-82
2021/11/01 13:41:52;;;;;;;24.43;18.30;;;;;;;14.67;65.72;94499.47;5053292;28;20960;-81
2021/11/01 13:44:22;;;;;;;23.87;17.13;;;;;;;14.77;65.35;94491.41;5053233;28;20476;-82
2021/11/01 13:46:52;;;;;;;26.83;15.20;;;;;;;14.67;65.95;94486.28;5052967;28;20557;-82
2021/11/01 13:49:21;;;;;;;24.67;15.57;;;;;;;14.45;65.39;94492.19;5067173;28;20480;-82
2021/11/01 13:51:50;;;;;;;26.87;17.00;;;;;;;14.44;65.45;94479.97;5095227;28;20472;-82
2021/11/01 13:54:32;;;;;;;22.70;14.90;;;;;;;14.46;65.71;94489.41;5095298;28;20440;-82
2021/11/01 13:57:02;;;;;;;26.30;17.17;;;;;;;14.46;66.21;94484.13;5095223;28;21162;-82
2021/11/01 13:59:45;;;;;;;23.80;15.57;;;;;;;14.47;66.00;94485.78;5095356;28;20449;-82
2021/11/01 14:13:51;;;;;;;24.00;17.30;;;;;;;14.54;66.01;94485.94;4973972;28;20446;-81
2021/11/01 14:16:26;;;;;;;23.67;17.40;;;;;;;14.47;65.69;94484.97;4932305;28;20438;-82
2021/11/01 14:19:12;;;;;;;28.47;16.57;;;;;;;14.40;65.97;94483.91;4973701;28;20971;-82
2021/11/01 14:30:37;;;;;;;31.63;18.77;;;;;;;14.55;66.83;94484.97;4973539;28;20455;-82
2021/11/01 15:14:57;;;;;;;51.87;27.70;;;;;;;13.83;73.19;94467.94;4992430;28;20480;-83
2021/11/01 15:23:00;;;;;;;56.93;28.60;;;;;;;13.50;73.43;94461.72;4915223;29;20440;-83
2021/11/01 15:31:31;;;;;;;73.27;37.80;;;;;;;13.20;72.66;94460.44;4864470;29;20962;-83
2021/11/01 16:18:03;;;;;;;47.63;26.13;;;;;;;11.71;76.53;94468.19;4996607;28;20511;-84
2021/11/01 16:20:30;;;;;;;55.23;26.77;;;;;;;11.70;77.13;94469.97;4996297;28;20444;-82
2021/11/01 16:25:56;;;;;;;43.80;26.20;;;;;;;11.69;76.62;94473.59;4937875;29;21017;-82
2021/11/01 16:28:24;;;;;;;49.23;27.87;;;;;;;11.66;75.47;94471.25;4937889;29;20459;-82
2021/11/01 16:31:05;;;;;;;39.27;25.30;;;;;;;11.63;75.27;94476.81;4942154;29;20479;-82
2021/11/01 16:33:38;;;;;;;49.70;27.20;;;;;;;11.60;75.18;94477.09;4957134;29;20538;-82
2021/11/01 16:36:09;;;;;;;58.23;28.97;;;;;;;11.56;75.59;94477.50;4941614;29;20454;-82
2021/11/01 16:38:44;;;;;;;42.20;23.90;;;;;;;11.51;75.17;94474.50;4968639;28;20639;-82
2021/11/01 16:41:11;;;;;;;40.27;24.10;;;;;;;11.49;75.84;94475.47;4982562;28;20451;-82
2021/11/01 16:43:38;;;;;;;37.70;23.10;;;;;;;11.45;76.05;94468.03;5031593;28;20882;-83
2021/11/01 16:46:06;;;;;;;40.33;23.70;;;;;;;11.42;76.62;94476.22;5074753;28;20438;-82
2021/11/01 16:48:33;;;;;;;39.13;22.47;;;;;;;11.35;76.33;94477.78;5074768;28;20456;-82
2021/11/01 16:51:02;;;;;;;43.93;24.63;;;;;;;11.34;75.19;94474.31;5075002;28;20465;-82
2021/11/01 16:53:32;;;;;;;54.57;28.53;;;;;;;11.30;75.02;94480.84;5074683;28;20430;-82
2021/11/01 16:56:28;;;;;;;40.73;24.03;;;;;;;11.15;75.03;94472.59;5075094;28;20998;-82
2021/11/01 16:59:01;;;;;;;35.80;19.90;;;;;;;11.02;74.98;94481.75;5074384;28;20473;-82
2021/11/01 17:01:28;;;;;;;37.23;20.30;;;;;;;11.04;75.40;94479.81;5092904;28;20492;-82
2021/11/01 17:04:01;;;;;;;36.50;20.67;;;;;;;11.09;73.95;94488.91;5082137;28;20526;-82
2021/11/01 17:06:36;;;;;;;39.60;23.00;;;;;;;11.11;73.82;94488.78;5117578;28;20944;-82
2021/11/01 17:23:10;;;;;;;27.33;17.70;;;;;;;11.25;71.37;94496.16;5054586;28;20533;-82
2021/11/01 17:25:55;;;;;;;28.10;18.60;;;;;;;11.28;71.95;94501.16;5052581;28;20206;-83
2021/11/01 17:28:43;;;;;;;29.30;19.27;;;;;;;11.34;72.46;94508.47;5054274;28;20508;-82
2021/11/01 17:37:02;;;;;;;20.10;14.13;;;;;;;11.36;70.62;94516.19;4975658;28;20429;-84
2021/11/01 18:40:51;;;;;;;36.73;22.10;;;;;;;12.01;74.99;94527.53;4935986;29;20419;-82
2021/11/01 18:43:30;;;;;;;38.10;25.23;;;;;;;11.89;71.15;94528.72;4932530;29;20494;-81
2021/11/01 18:51:31;;;;;;;31.03;22.77;;;;;;;11.41;71.86;94537.59;4926284;29;20588;-81
2021/11/01 18:54:05;;;;;;;36.80;21.50;;;;;;;11.30;72.50;94532.53;4916033;29;20989;-81
2021/11/01 18:56:37;;;;;;;33.33;21.17;;;;;;;11.21;72.91;94533.38;4918035;29;20459;-81
2021/11/01 18:59:07;;;;;;;36.30;21.97;;;;;;;11.13;73.40;94531.47;4935044;29;21039;-81
2021/11/01 19:01:37;;;;;;;37.53;22.60;;;;;;;11.06;73.71;94533.84;4965774;28;20453;-81
2021/11/01 19:04:11;;;;;;;31.50;20.00;;;;;;;10.89;73.72;94529.31;5021162;28;20450;-80
2021/11/01 19:06:52;;;;;;;36.20;22.80;;;;;;;10.86;74.23;94542.72;5032216;28;20493;-81
2021/11/01 19:09:36;;;;;;;35.23;20.70;;;;;;;10.44;75.29;94548.28;5032986;28;20432;-81
2021/11/01 20:04:56;;;;;;;97.50;56.07;;;;;;;9.81;77.32;94573.06;5134608;28;20453;-81
2021/11/01 20:17:03;;;;;;;79.00;47.27;;;;;;;9.71;76.61;94566.97;5135407;28;20394;-80